createdAt,value
2022-08-24T00:01:00.280Z,97.30
2022-08-24T00:09:03.160Z,97.60
2022-08-24T00:11:30.667Z,98.10
2022-08-24T00:13:57.905Z,98.30
2022-08-24T00:16:26.798Z,98.50
2022-08-24T00:18:55.621Z,98.70
2022-08-24T00:21:23.205Z,98.70
2022-08-24T00:23:50.420Z,98.80
2022-08-24T00:31:23.505Z,99.20
2022-08-24T00:33:50.903Z,99.50
2022-08-24T00:36:21.598Z,99.50
2022-08-24T00:38:49.625Z,99.80
2022-08-24T00:41:18.577Z,99.80
2022-08-24T00:43:54.579Z,99.90
2022-08-24T00:46:26.491Z,99.90
2022-08-24T00:54:05.309Z,99.90
2022-08-24T00:56:38.710Z,99.90
2022-08-24T00:59:11.401Z,99.90
2022-08-24T01:01:39.312Z,99.90
2022-08-24T01:04:11.468Z,99.90
2022-08-24T01:06:39.401Z,99.90
2022-08-24T01:09:08.310Z,99.90
2022-08-24T01:17:01.409Z,99.90
2022-08-24T01:19:36.840Z,99.90
2022-08-24T01:22:20.551Z,99.90
2022-08-24T01:24:49.011Z,99.90
2022-08-24T01:27:19.937Z,99.90
2022-08-24T01:29:52.910Z,99.90
2022-08-24T01:32:23.379Z,99.90
2022-08-24T01:39:54.679Z,99.90
2022-08-24T01:42:22.672Z,99.90
2022-08-24T01:44:50.461Z,99.90
2022-08-24T01:47:18.379Z,99.90
2022-08-24T01:49:47.902Z,99.90
2022-08-24T01:52:19.577Z,99.90
2022-08-24T01:54:47.909Z,99.90
2022-08-24T02:02:26.728Z,99.90
2022-08-24T02:04:54.489Z,99.90
2022-08-24T02:07:22.239Z,99.90
2022-08-24T02:09:49.958Z,99.90
2022-08-24T02:12:18.160Z,99.90
2022-08-24T02:14:45.780Z,99.90
2022-08-24T02:17:13.299Z,99.90
2022-08-24T02:24:44.869Z,99.90
2022-08-24T02:27:16.489Z,99.90
2022-08-24T02:29:45.758Z,99.90
2022-08-24T02:32:13.200Z,99.90
2022-08-24T02:34:40.622Z,99.90
2022-08-24T02:37:08.778Z,99.90
2022-08-24T02:39:36.814Z,99.90
2022-08-24T02:47:10.271Z,99.90
2022-08-24T02:49:38.250Z,99.90
2022-08-24T02:52:09.399Z,99.90
2022-08-24T02:54:36.850Z,99.90
2022-08-24T02:57:05.170Z,99.90
2022-08-24T02:59:33.019Z,99.90
2022-08-24T03:02:00.417Z,99.90
2022-08-24T03:09:32.536Z,99.90
2022-08-24T03:12:00.250Z,99.90
2022-08-24T03:14:27.659Z,99.90
2022-08-24T03:16:55.051Z,99.90
2022-08-24T03:19:23.328Z,99.90
2022-08-24T03:21:50.809Z,99.90
2022-08-24T03:24:18.642Z,99.90
2022-08-24T03:26:47.828Z,99.90
2022-08-24T03:34:16.200Z,99.90
2022-08-24T03:36:46.260Z,99.90
2022-08-24T03:39:14.810Z,99.90
2022-08-24T03:41:42.570Z,99.90
2022-08-24T03:44:09.838Z,99.90
2022-08-24T03:46:38.878Z,99.90
2022-08-24T03:49:08.313Z,99.90
2022-08-24T03:56:41.658Z,99.90
2022-08-24T03:59:10.663Z,99.90
2022-08-24T04:01:38.984Z,99.90
2022-08-24T04:04:09.210Z,99.90
2022-08-24T04:06:36.851Z,99.90
2022-08-24T04:09:04.908Z,99.90
2022-08-24T04:11:37.350Z,99.90
2022-08-24T04:18:37.740Z,99.90
2022-08-24T04:21:06.080Z,99.90
2022-08-24T04:23:46.810Z,99.90
2022-08-24T04:26:16.428Z,99.90
2022-08-24T04:29:08.240Z,99.90
2022-08-24T04:31:36.486Z,99.90
2022-08-24T04:34:04.959Z,99.90
2022-08-24T04:41:38.252Z,99.90
2022-08-24T04:44:06.740Z,99.90
2022-08-24T04:46:35.363Z,99.90
2022-08-24T04:49:04.060Z,99.90
2022-08-24T04:51:36.693Z,99.90
2022-08-24T04:54:05.078Z,99.90
2022-08-24T04:56:32.752Z,99.90
2022-08-24T05:04:05.746Z,99.90
2022-08-24T05:06:34.661Z,99.90
2022-08-24T05:09:03.861Z,99.90
2022-08-24T05:11:31.931Z,99.90
2022-08-24T05:14:00.290Z,99.90
2022-08-24T05:16:28.800Z,99.90
2022-08-24T05:19:02.092Z,99.90
2022-08-24T05:24:10.101Z,99.90
2022-08-24T05:26:40.740Z,99.90
2022-08-24T05:29:09.649Z,99.90
2022-08-24T05:31:37.359Z,99.90
2022-08-24T05:34:05.858Z,99.90
2022-08-24T05:36:37.609Z,99.90
2022-08-24T05:39:11.354Z,99.90
2022-08-24T05:46:48.037Z,99.90
2022-08-24T05:49:16.559Z,99.90
2022-08-24T05:51:44.250Z,99.90
2022-08-24T05:54:13.296Z,99.90
2022-08-24T05:56:42.450Z,99.90
2022-08-24T05:59:10.326Z,99.90
2022-08-24T06:01:42.198Z,99.90
2022-08-24T06:09:17.021Z,99.90
2022-08-24T06:11:46.392Z,99.90
2022-08-24T06:14:15.931Z,99.90
2022-08-24T06:16:45.501Z,99.90
2022-08-24T06:19:16.553Z,99.90
2022-08-24T06:21:46.845Z,99.90
2022-08-24T06:24:15.864Z,99.90
2022-08-24T06:32:08.335Z,99.90
2022-08-24T06:34:38.842Z,99.90
2022-08-24T06:37:07.002Z,99.90
2022-08-24T06:39:35.739Z,99.90
2022-08-24T06:42:04.863Z,99.90
2022-08-24T06:44:33.181Z,99.90
2022-08-24T06:47:01.235Z,99.90
2022-08-24T06:52:19.623Z,99.90
2022-08-24T06:54:47.421Z,99.90
2022-08-24T06:57:15.132Z,99.90
2022-08-24T06:59:44.423Z,99.90
2022-08-24T07:02:15.283Z,99.90
2022-08-24T07:04:42.582Z,99.90
2022-08-24T07:07:10.183Z,99.90
2022-08-24T07:14:42.265Z,99.90
2022-08-24T07:17:10.272Z,99.90
2022-08-24T07:19:38.333Z,99.90
2022-08-24T07:22:06.651Z,99.90
2022-08-24T07:24:35.392Z,99.90
2022-08-24T07:27:03.510Z,99.90
2022-08-24T07:29:47.230Z,99.90
2022-08-24T07:37:25.203Z,99.90
2022-08-24T07:39:53.288Z,99.90
2022-08-24T07:42:29.670Z,99.90
2022-08-24T07:45:00.374Z,99.90
2022-08-24T07:47:38.122Z,99.90
2022-08-24T07:50:08.405Z,99.90
2022-08-24T07:52:36.742Z,99.90
2022-08-24T08:00:13.933Z,99.90
2022-08-24T08:02:42.563Z,99.90
2022-08-24T08:05:11.113Z,99.90
2022-08-24T08:07:38.963Z,99.90
2022-08-24T08:10:08.002Z,99.90
2022-08-24T08:12:36.323Z,99.90
2022-08-24T08:15:05.159Z,99.90
2022-08-24T08:22:55.707Z,99.90
2022-08-24T08:25:23.215Z,99.90
2022-08-24T08:27:50.905Z,99.90
2022-08-24T08:30:21.393Z,99.90
2022-08-24T08:32:49.275Z,99.90
2022-08-24T08:35:16.843Z,99.90
2022-08-24T08:37:45.243Z,99.90
2022-08-24T08:45:29.013Z,99.90
2022-08-24T08:48:32.016Z,99.90
2022-08-24T08:51:33.282Z,99.90
2022-08-24T08:54:15.251Z,99.90
2022-08-24T08:56:59.367Z,99.90
2022-08-24T08:59:41.471Z,99.90
2022-08-24T09:07:51.093Z,99.90
2022-08-24T09:10:39.253Z,99.10
2022-08-24T09:13:17.961Z,98.90
2022-08-24T09:16:11.882Z,98.00
2022-08-24T09:18:55.563Z,97.40
2022-08-24T09:21:45.640Z,96.60
2022-08-24T09:29:53.701Z,94.90
2022-08-24T09:32:39.261Z,94.60
2022-08-24T09:35:14.432Z,94.70
2022-08-24T09:38:00.181Z,95.00
2022-08-24T09:40:39.131Z,94.80
2022-08-24T09:44:03.244Z,94.90
2022-08-24T09:52:19.071Z,94.10
2022-08-24T09:55:17.044Z,93.50
2022-08-24T09:58:01.085Z,92.80
2022-08-24T10:00:34.231Z,92.10
2022-08-24T10:03:26.257Z,92.20
2022-08-24T10:06:25.892Z,92.60
2022-08-24T10:13:40.540Z,92.10
2022-08-24T10:16:28.137Z,91.40
2022-08-24T10:19:06.061Z,91.40
2022-08-24T10:21:50.071Z,90.50
2022-08-24T10:24:37.127Z,90.50
2022-08-24T10:27:21.342Z,90.10
2022-08-24T10:35:26.483Z,89.90
2022-08-24T10:38:42.228Z,86.70
2022-08-24T10:41:45.128Z,87.40
2022-08-24T10:44:47.442Z,85.40
2022-08-24T10:47:21.948Z,85.00
2022-08-24T10:50:20.462Z,85.20
2022-08-24T10:58:34.492Z,83.20
2022-08-24T11:01:16.564Z,82.10
2022-08-24T11:03:57.802Z,81.70
2022-08-24T11:06:28.171Z,81.90
2022-08-24T11:09:00.852Z,80.20
2022-08-24T11:11:32.391Z,80.40
2022-08-24T11:14:06.257Z,78.70
2022-08-24T11:21:12.013Z,79.10
2022-08-24T11:23:43.701Z,79.30
2022-08-24T11:26:20.084Z,78.60
2022-08-24T11:28:50.984Z,78.60
2022-08-24T11:31:28.500Z,78.40
2022-08-24T11:34:01.032Z,78.20
2022-08-24T11:36:33.321Z,77.80
2022-08-24T11:44:02.832Z,77.90
2022-08-24T11:46:38.874Z,78.40
2022-08-24T11:49:14.146Z,78.10
2022-08-24T11:51:46.594Z,78.10
2022-08-24T11:54:24.311Z,77.60
2022-08-24T11:57:05.243Z,77.50
2022-08-24T12:00:01.102Z,78.00
2022-08-24T12:07:51.080Z,77.90
2022-08-24T12:10:32.792Z,76.70
2022-08-24T12:13:07.181Z,77.20
2022-08-24T12:15:47.628Z,76.20
2022-08-24T12:18:26.821Z,76.30
2022-08-24T12:20:57.012Z,75.70
2022-08-24T12:23:32.062Z,76.30
2022-08-24T12:31:18.509Z,77.30
2022-08-24T12:33:49.791Z,77.30
2022-08-24T12:36:29.203Z,77.20
2022-08-24T12:39:10.412Z,77.00
2022-08-24T12:41:49.353Z,75.90
2022-08-24T12:44:19.363Z,77.10
2022-08-24T12:49:54.902Z,74.70
2022-08-24T12:52:50.422Z,74.50
2022-08-24T12:55:31.420Z,75.40
2022-08-24T12:58:30.931Z,76.80
2022-08-24T13:00:56.740Z,76.60
2022-08-24T13:03:31.102Z,76.30
2022-08-24T13:11:38.112Z,76.20
2022-08-24T13:14:17.631Z,76.10
2022-08-24T13:16:55.422Z,76.40
2022-08-24T13:19:39.792Z,76.30
2022-08-24T13:22:45.890Z,75.90
2022-08-24T13:25:38.133Z,76.50
2022-08-24T13:33:51.832Z,76.20
2022-08-24T13:36:49.522Z,76.30
2022-08-24T13:39:49.743Z,76.60
2022-08-24T13:42:31.820Z,76.80
2022-08-24T13:45:15.738Z,76.60
2022-08-24T13:48:02.139Z,77.40
2022-08-24T13:53:38.930Z,76.70
2022-08-24T13:56:32.796Z,76.40
2022-08-24T13:59:11.631Z,77.30
2022-08-24T14:01:58.930Z,77.50
2022-08-24T14:04:43.980Z,77.40
2022-08-24T14:07:17.841Z,77.20
2022-08-24T14:13:07.302Z,78.10
2022-08-24T14:16:15.151Z,78.10
2022-08-24T14:18:58.902Z,78.50
2022-08-24T14:21:38.623Z,78.60
2022-08-24T14:24:11.430Z,78.30
2022-08-24T14:27:21.023Z,77.50
2022-08-24T14:35:04.232Z,79.10
2022-08-24T14:37:40.211Z,79.40
2022-08-24T14:40:17.474Z,79.40
2022-08-24T14:42:56.023Z,79.00
2022-08-24T14:45:27.632Z,79.10
2022-08-24T14:48:04.543Z,79.20
2022-08-24T14:50:40.392Z,78.90
2022-08-24T14:58:21.019Z,79.60
2022-08-24T15:01:12.542Z,78.20
2022-08-24T15:04:11.253Z,79.60
2022-08-24T15:06:46.972Z,79.20
2022-08-24T15:09:20.402Z,79.50
2022-08-24T15:11:50.397Z,79.80
2022-08-24T15:22:26.763Z,79.20
2022-08-24T15:25:02.883Z,79.60
2022-08-24T15:27:43.652Z,79.30
2022-08-24T15:30:22.561Z,79.80
2022-08-24T15:32:55.133Z,79.10
2022-08-24T15:35:29.872Z,78.40
2022-08-24T15:37:59.719Z,79.70
2022-08-24T15:45:40.367Z,79.90
2022-08-24T15:48:13.318Z,79.70
2022-08-24T15:50:45.177Z,79.40
2022-08-24T15:53:32.546Z,79.70
2022-08-24T15:56:24.208Z,79.50
2022-08-24T15:58:53.326Z,78.80
2022-08-24T16:04:04.936Z,78.70
2022-08-24T16:06:40.967Z,79.70
2022-08-24T16:09:14.460Z,79.80
2022-08-24T16:11:45.680Z,80.10
2022-08-24T16:14:25.030Z,79.10
2022-08-24T16:16:56.271Z,79.00
2022-08-24T16:19:29.146Z,78.80
2022-08-24T16:24:38.780Z,78.70
2022-08-24T16:27:12.769Z,77.60
2022-08-24T16:29:47.889Z,79.10
2022-08-24T16:32:33.017Z,78.90
2022-08-24T16:35:24.895Z,79.10
2022-08-24T16:37:57.434Z,79.10
2022-08-24T16:48:20.187Z,78.70
2022-08-24T16:50:51.185Z,78.70
2022-08-24T16:53:27.122Z,79.60
2022-08-24T16:56:00.628Z,79.40
2022-08-24T16:58:33.793Z,79.40
2022-08-24T17:01:03.302Z,79.30
2022-08-24T17:03:33.869Z,78.70
2022-08-24T17:11:07.908Z,78.90
2022-08-24T17:13:51.353Z,78.60
2022-08-24T17:16:23.384Z,79.20
2022-08-24T17:18:54.025Z,79.30
2022-08-24T17:21:23.225Z,79.10
2022-08-24T17:23:52.828Z,79.50
2022-08-24T17:26:22.745Z,79.70
2022-08-24T17:36:44.607Z,80.00
2022-08-24T17:39:24.430Z,80.00
2022-08-24T17:41:54.745Z,79.70
2022-08-24T17:44:39.673Z,80.00
2022-08-24T17:47:13.119Z,79.80
2022-08-24T17:49:43.265Z,80.00
2022-08-24T17:52:15.379Z,80.30
2022-08-24T17:59:53.587Z,80.30
2022-08-24T18:02:24.061Z,80.40
2022-08-24T18:04:53.074Z,80.80
2022-08-24T18:07:51.804Z,81.10
2022-08-24T18:10:24.859Z,80.40
2022-08-24T18:13:02.949Z,80.90
2022-08-24T18:15:53.266Z,81.10
2022-08-24T18:23:32.325Z,81.40
2022-08-24T18:26:00.866Z,81.80
2022-08-24T18:28:28.402Z,81.70
2022-08-24T18:30:56.617Z,81.60
2022-08-24T18:33:26.157Z,81.50
2022-08-24T18:35:56.514Z,82.20
2022-08-24T18:38:29.514Z,82.10
2022-08-24T18:46:01.905Z,81.90
2022-08-24T18:48:30.044Z,81.90
2022-08-24T18:51:00.565Z,81.90
2022-08-24T18:53:30.646Z,81.70
2022-08-24T18:56:01.794Z,82.00
2022-08-24T18:58:33.423Z,82.00
2022-08-24T19:01:19.309Z,82.10
2022-08-24T19:08:56.233Z,82.50
2022-08-24T19:11:26.793Z,82.80
2022-08-24T19:13:55.725Z,82.70
2022-08-24T19:16:29.203Z,82.60
2022-08-24T19:18:59.595Z,82.70
2022-08-24T19:21:29.597Z,82.80
2022-08-24T19:23:59.034Z,82.90
2022-08-24T19:31:38.893Z,82.80
2022-08-24T19:34:12.035Z,83.20
2022-08-24T19:36:41.694Z,83.60
2022-08-24T19:39:10.023Z,84.20
2022-08-24T19:41:41.225Z,84.10
2022-08-24T19:44:30.116Z,84.40
2022-08-24T19:46:59.787Z,84.10
2022-08-24T19:54:19.114Z,84.40
2022-08-24T19:56:47.996Z,84.40
2022-08-24T19:59:21.965Z,84.30
2022-08-24T20:01:51.271Z,84.30
2022-08-24T20:04:19.335Z,84.70
2022-08-24T20:06:48.043Z,84.80
2022-08-24T20:09:21.795Z,84.90
2022-08-24T20:17:43.223Z,85.00
2022-08-24T20:20:13.394Z,85.00
2022-08-24T20:22:41.053Z,85.10
2022-08-24T20:25:09.434Z,85.50
2022-08-24T20:27:39.764Z,85.30
2022-08-24T20:30:10.833Z,85.50
2022-08-24T20:32:39.036Z,85.50
2022-08-24T20:40:11.521Z,85.50
2022-08-24T20:42:41.155Z,85.30
2022-08-24T20:45:10.634Z,85.70
2022-08-24T20:47:42.704Z,85.80
2022-08-24T20:50:10.725Z,85.80
2022-08-24T20:52:41.575Z,85.80
2022-08-24T20:55:12.132Z,85.90
2022-08-24T21:02:47.884Z,86.40
2022-08-24T21:05:15.733Z,86.70
2022-08-24T21:07:49.185Z,87.70
2022-08-24T21:10:18.682Z,87.40
2022-08-24T21:12:46.772Z,87.50
2022-08-24T21:15:14.675Z,87.90
2022-08-24T21:17:45.233Z,88.00
2022-08-24T21:25:17.898Z,88.40
2022-08-24T21:27:48.447Z,89.00
2022-08-24T21:30:19.204Z,89.30
2022-08-24T21:33:05.062Z,89.40
2022-08-24T21:35:34.406Z,89.40
2022-08-24T21:38:02.325Z,89.50
2022-08-24T21:40:31.436Z,90.00
2022-08-24T21:48:05.115Z,90.30
2022-08-24T21:50:32.523Z,90.40
2022-08-24T21:53:00.316Z,90.40
2022-08-24T21:55:28.355Z,90.50
2022-08-24T21:57:55.641Z,90.50
2022-08-24T22:00:23.674Z,90.60
2022-08-24T22:02:51.861Z,90.80
2022-08-24T22:10:25.304Z,91.00
2022-08-24T22:12:54.327Z,91.20
2022-08-24T22:15:23.196Z,91.30
2022-08-24T22:17:52.716Z,91.40
2022-08-24T22:20:23.265Z,91.60
2022-08-24T22:22:51.853Z,91.80
2022-08-24T22:25:19.735Z,92.00
2022-08-24T22:32:51.723Z,92.10
2022-08-24T22:35:19.667Z,92.60
2022-08-24T22:37:47.416Z,92.70
2022-08-24T22:40:19.078Z,93.00
2022-08-24T22:42:46.672Z,93.20
2022-08-24T22:45:15.325Z,93.40
2022-08-24T22:47:42.988Z,93.70
2022-08-24T22:55:12.374Z,94.20
2022-08-24T22:57:40.205Z,94.30
2022-08-24T23:00:09.636Z,94.50
2022-08-24T23:02:38.745Z,94.80
2022-08-24T23:05:10.673Z,94.90
2022-08-24T23:07:38.097Z,95.00
2022-08-24T23:10:07.114Z,95.20
2022-08-24T23:15:23.135Z,95.30
2022-08-24T23:17:50.815Z,95.70
2022-08-24T23:20:18.686Z,95.70
2022-08-24T23:22:47.795Z,96.10
2022-08-24T23:25:15.485Z,96.70
2022-08-24T23:27:44.493Z,96.50
2022-08-24T23:30:15.293Z,96.80
2022-08-24T23:37:48.125Z,97.30
2022-08-24T23:40:16.876Z,98.00
2022-08-24T23:42:44.483Z,98.20
2022-08-24T23:45:14.625Z,98.60
2022-08-24T23:47:42.653Z,98.80
2022-08-24T23:50:11.591Z,99.40
2022-08-24T23:52:40.476Z,99.90
